Terminal Aerodrome Forecast
Issued by NWS Newport/Morehead City, NC

Home | Current Version | Previous Version | Text Only | Print | Product List | Glossary On
Versions: 1 2 3 4 5 6 7 8 9 10 11 12 13 14 15 16 17
622
FTUS42 KMHX 010528
TAFEWN
TAF
KEWN 010528Z 0106/0206 19005KT P6SM SKC
     FM010900 19010KT P6SM FEW006 SCT020
     FM011300 19012KT P6SM SCT250
     FM011900 20017KT P6SM FEW035
     FM020200 20016KT P6SM VCTS BKN020CB=

USA.gov is the U.S. government's official web portal to all federal, state and local government web resources and services.